Time;durP1;ratioP1;P1;durP2;ratioP2;P2;SDS_P1;SDS_P2;PMS_P1;PMS_P2;Temp;Humidity;BMP_temperature;BMP_pressure;BME280_temperature;BME280_humidity;BME280_pressure;Samples;Min_cycle;Max_cycle;Signal;HPM_P1;HPM_P2
2023/12/20 00:01:39;;;;;;;6.28;3.97;;;10.70;99.90;;;;;;4267895;27;20050;-64
2023/12/20 00:03:43;;;;;;;10.18;3.72;;;10.70;99.90;;;;;;4268071;27;20046;-64
2023/12/20 00:05:47;;;;;;;6.88;3.60;;;10.70;99.90;;;;;;4249723;27;20047;-64
2023/12/20 00:07:49;;;;;;;7.03;4.10;;;10.70;99.90;;;;;;4268533;27;20039;-71
2023/12/20 00:09:51;;;;;;;7.43;4.07;;;10.80;99.90;;;;;;4269775;27;20443;-65
2023/12/20 00:11:53;;;;;;;5.18;3.35;;;10.70;99.90;;;;;;4269660;27;20501;-65
2023/12/20 00:13:55;;;;;;;6.93;3.92;;;10.70;99.90;;;;;;4269253;27;20517;-67
2023/12/20 00:15:58;;;;;;;5.68;3.30;;;10.50;99.90;;;;;;4268556;27;20122;-68
2023/12/20 00:18:00;;;;;;;7.70;3.35;;;10.60;99.90;;;;;;4268457;27;20391;-65
2023/12/20 00:20:06;;;;;;;5.25;3.25;;;10.60;99.90;;;;;;4267877;27;20043;-64
2023/12/20 00:22:08;;;;;;;7.40;3.60;;;10.50;99.90;;;;;;4268057;27;20077;-64
2023/12/20 00:24:10;;;;;;;3.83;3.40;;;10.50;99.90;;;;;;4268150;27;20062;-64
2023/12/20 00:26:12;;;;;;;9.43;3.55;;;10.50;99.90;;;;;;4268601;27;20121;-65
2023/12/20 00:28:14;;;;;;;6.65;3.65;;;10.40;99.90;;;;;;4269092;27;20444;-65
2023/12/20 00:30:16;;;;;;;7.15;3.65;;;10.40;99.90;;;;;;4269214;27;20047;-64
2023/12/20 00:32:20;;;;;;;6.97;3.08;;;10.30;99.90;;;;;;4268278;27;20043;-62
2023/12/20 00:34:22;;;;;;;9.52;2.70;;;10.20;99.90;;;;;;4267853;27;20043;-63
2023/12/20 00:36:25;;;;;;;9.57;2.53;;;10.20;99.90;;;;;;4267400;27;20047;-64
2023/12/20 00:38:28;;;;;;;10.05;2.72;;;10.20;99.90;;;;;;4267549;27;20502;-62
2023/12/20 00:40:31;;;;;;;11.68;2.72;;;10.00;99.90;;;;;;4267204;27;20095;-62
2023/12/20 00:42:33;;;;;;;6.70;1.70;;;9.90;99.90;;;;;;4267375;27;20109;-64
2023/12/20 00:44:35;;;;;;;5.50;1.85;;;9.80;99.90;;;;;;4267381;27;20053;-65
2023/12/20 00:46:37;;;;;;;9.23;1.65;;;9.70;99.90;;;;;;4267365;27;20401;-64
2023/12/20 00:48:41;;;;;;;7.07;1.42;;;9.70;99.90;;;;;;4248862;27;20147;-64
2023/12/20 00:50:43;;;;;;;11.45;1.80;;;9.60;99.90;;;;;;4267606;27;20119;-64
2023/12/20 00:52:47;;;;;;;9.07;1.63;;;9.60;99.90;;;;;;4267378;27;20412;-64
2023/12/20 00:54:49;;;;;;;10.95;1.90;;;9.50;99.90;;;;;;4267368;27;20074;-64
2023/12/20 00:56:51;;;;;;;9.40;2.20;;;9.60;99.90;;;;;;4249318;27;20051;-64
2023/12/20 00:58:53;;;;;;;8.07;1.58;;;9.60;99.90;;;;;;4249035;27;20047;-64
2023/12/20 01:00:55;;;;;;;9.35;1.98;;;9.50;99.90;;;;;;4267142;27;20039;-64
2023/12/20 01:02:57;;;;;;;7.18;1.90;;;9.40;99.90;;;;;;4267266;27;20061;-64
2023/12/20 01:05:00;;;;;;;8.45;2.35;;;9.40;99.90;;;;;;4266944;27;20039;-63
2023/12/20 01:07:03;;;;;;;8.50;2.40;;;9.30;99.90;;;;;;4249013;27;20061;-64
2023/12/20 01:09:07;;;;;;;14.70;1.90;;;9.30;99.90;;;;;;4266477;27;20047;-64
2023/12/20 01:11:09;;;;;;;9.52;2.20;;;9.20;99.90;;;;;;4266503;27;20039;-64
2023/12/20 01:13:11;;;;;;;9.02;2.53;;;9.30;99.90;;;;;;4267218;27;20145;-64
2023/12/20 01:15:13;;;;;;;8.38;2.40;;;9.20;99.90;;;;;;4267302;27;20153;-64
2023/12/20 01:17:15;;;;;;;15.25;2.55;;;9.20;99.90;;;;;;4267376;27;20046;-64
2023/12/20 01:19:17;;;;;;;12.73;2.17;;;9.20;99.90;;;;;;4267085;27;20062;-64
2023/12/20 01:21:19;;;;;;;10.45;2.35;;;9.20;99.90;;;;;;4266867;27;20043;-64
2023/12/20 01:23:22;;;;;;;10.27;2.10;;;9.10;99.90;;;;;;4266529;27;20046;-64
2023/12/20 01:25:25;;;;;;;13.95;2.58;;;9.00;99.90;;;;;;4267016;27;20047;-65
2023/12/20 01:27:27;;;;;;;10.82;2.20;;;9.00;99.90;;;;;;4266879;27;20125;-64
2023/12/20 01:29:29;;;;;;;9.07;2.28;;;8.90;99.90;;;;;;4266725;27;20385;-65
2023/12/20 01:31:31;;;;;;;8.93;2.15;;;8.90;99.90;;;;;;4266788;27;20043;-65
2023/12/20 01:33:33;;;;;;;10.13;1.92;;;8.90;99.90;;;;;;4266744;27;20042;-65
2023/12/20 01:35:36;;;;;;;12.25;2.72;;;9.00;99.90;;;;;;4266550;27;20374;-65
2023/12/20 01:37:37;;;;;;;11.75;2.08;;;8.90;99.90;;;;;;4265938;27;20124;-64
2023/12/20 01:39:40;;;;;;;12.18;2.38;;;8.90;99.90;;;;;;4266594;27;20126;-65
2023/12/20 01:41:43;;;;;;;11.77;2.42;;;8.80;99.90;;;;;;4266653;27;20500;-68
2023/12/20 01:43:45;;;;;;;12.23;2.80;;;8.90;99.90;;;;;;4266810;27;20597;-64
2023/12/20 01:45:54;;;;;;;13.30;2.33;;;8.90;99.90;;;;;;4266612;27;20040;-65
2023/12/20 01:47:59;;;;;;;13.30;2.60;;;8.80;99.90;;;;;;4266452;27;20047;-64
2023/12/20 01:50:03;;;;;;;11.02;2.30;;;8.80;99.90;;;;;;4266427;27;20051;-64
2023/12/20 01:52:06;;;;;;;;;;;8.80;99.90;;;;;;4266617;27;20549;-65
2023/12/20 01:54:11;;;;;;;12.23;2.33;;;8.70;99.90;;;;;;4266416;27;20354;-64
2023/12/20 01:56:14;;;;;;;11.38;2.90;;;8.80;99.90;;;;;;4248030;27;20039;-64
2023/12/20 01:58:18;;;;;;;11.32;2.63;;;8.80;99.90;;;;;;4265909;27;20050;-65
2023/12/20 02:00:23;;;;;;;13.05;2.75;;;8.90;99.90;;;;;;4266127;27;20053;-65
2023/12/20 02:02:28;;;;;;;12.95;3.40;;;9.00;99.90;;;;;;4266140;27;20053;-64
2023/12/20 02:04:30;;;;;;;14.80;2.92;;;9.00;99.90;;;;;;4266171;27;20049;-64
2023/12/20 02:06:34;;;;;;;10.23;3.45;;;9.10;99.90;;;;;;4265696;27;20046;-65
2023/12/20 02:08:36;;;;;;;10.98;3.45;;;9.10;99.90;;;;;;4247634;27;20472;-64
2023/12/20 02:10:40;;;;;;;9.32;3.17;;;9.20;99.90;;;;;;4265984;27;20121;-64
2023/12/20 02:12:42;;;;;;;7.85;2.40;;;9.20;99.90;;;;;;4266138;27;20440;-64
2023/12/20 02:14:45;;;;;;;7.78;2.63;;;9.30;99.90;;;;;;4265807;27;20070;-64
2023/12/20 02:16:48;;;;;;;13.10;2.72;;;9.40;99.90;;;;;;4265715;27;20103;-65
2023/12/20 02:18:50;;;;;;;12.98;2.80;;;9.30;99.90;;;;;;4266025;27;20362;-64
2023/12/20 02:20:53;;;;;;;6.72;2.75;;;9.40;99.90;;;;;;4265249;27;20039;-64
2023/12/20 02:22:56;;;;;;;8.32;2.40;;;9.40;99.90;;;;;;4265059;27;20126;-64
2023/12/20 02:24:58;;;;;;;10.02;2.88;;;9.40;99.90;;;;;;4265760;27;20053;-65
2023/12/20 02:27:03;;;;;;;14.90;2.92;;;9.40;99.90;;;;;;4265754;27;20047;-65
2023/12/20 02:29:06;;;;;;;9.73;2.60;;;9.40;99.90;;;;;;4265837;27;20073;-64
2023/12/20 02:31:08;;;;;;;16.35;2.67;;;9.40;99.90;;;;;;4265813;27;20133;-64
2023/12/20 02:33:13;;;;;;;11.55;2.80;;;9.40;99.90;;;;;;4247514;27;20075;-65
2023/12/20 02:35:16;;;;;;;10.82;2.38;;;9.50;99.90;;;;;;4265307;27;20043;-65
2023/12/20 02:37:18;;;;;;;9.60;2.25;;;9.40;99.90;;;;;;4265923;27;20448;-67
2023/12/20 02:39:23;;;;;;;11.07;2.33;;;9.40;99.90;;;;;;4266457;27;20042;-65
2023/12/20 02:41:26;;;;;;;8.57;2.22;;;9.40;99.90;;;;;;4266230;27;20070;-64
2023/12/20 02:43:28;;;;;;;11.10;2.58;;;9.40;99.90;;;;;;4265675;27;20045;-64
2023/12/20 02:45:30;;;;;;;10.88;2.50;;;9.40;99.90;;;;;;4265647;27;20055;-64
2023/12/20 02:47:32;;;;;;;11.38;2.33;;;9.40;99.90;;;;;;4265455;27;20535;-64
2023/12/20 02:49:34;;;;;;;8.45;2.05;;;9.40;99.90;;;;;;4246761;27;20117;-64
2023/12/20 02:51:38;;;;;;;12.48;2.65;;;9.30;99.90;;;;;;4265661;27;20078;-65
2023/12/20 02:53:40;;;;;;;8.20;2.20;;;9.30;99.90;;;;;;4266573;27;20043;-66
2023/12/20 02:55:44;;;;;;;11.30;2.22;;;9.20;99.90;;;;;;4267164;27;20550;-68
2023/12/20 02:57:46;;;;;;;13.15;2.42;;;9.20;99.90;;;;;;4265781;27;20146;-64
2023/12/20 02:59:49;;;;;;;7.78;2.30;;;9.10;99.90;;;;;;4265481;27;20556;-64
2023/12/20 03:01:50;;;;;;;10.57;2.20;;;9.20;99.90;;;;;;4265122;27;20168;-65
2023/12/20 03:03:53;;;;;;;10.63;2.20;;;9.10;99.90;;;;;;4264702;27;20450;-64
2023/12/20 03:05:55;;;;;;;16.58;2.33;;;9.20;99.90;;;;;;4265348;27;20042;-66
2023/12/20 03:07:57;;;;;;;11.00;2.20;;;9.10;99.90;;;;;;4265165;27;20474;-65
2023/12/20 03:10:00;;;;;;;10.68;2.40;;;9.10;99.90;;;;;;4265368;27;20046;-65
2023/12/20 03:12:22;;;;;;;10.60;2.30;;;9.10;99.90;;;;;;4265220;27;20169;-65
2023/12/20 03:14:24;;;;;;;9.73;2.20;;;9.10;99.90;;;;;;4265057;27;20047;-64
2023/12/20 03:16:26;;;;;;;14.65;2.67;;;9.10;99.90;;;;;;4265078;27;20053;-64
2023/12/20 03:18:28;;;;;;;10.77;2.30;;;9.00;99.90;;;;;;4264745;27;20437;-64
2023/12/20 03:20:34;;;;;;;10.40;2.25;;;9.00;99.90;;;;;;4265031;27;20417;-64
2023/12/20 03:22:36;;;;;;;6.20;1.85;;;9.10;99.90;;;;;;4265461;27;20043;-64
2023/12/20 03:24:38;;;;;;;12.38;2.17;;;9.10;99.90;;;;;;4266210;27;20042;-67
2023/12/20 03:26:40;;;;;;;12.65;2.70;;;8.90;99.90;;;;;;4267681;27;20049;-68
2023/12/20 03:28:44;;;;;;;11.98;2.58;;;9.00;99.90;;;;;;4266713;27;20050;-64
2023/12/20 03:30:46;;;;;;;14.90;2.88;;;9.00;99.90;;;;;;4266717;27;20038;-66
2023/12/20 03:32:48;;;;;;;10.82;2.58;;;8.90;99.90;;;;;;4265873;27;20457;-66
2023/12/20 03:34:50;;;;;;;11.40;3.03;;;8.90;99.90;;;;;;4265733;27;20054;-64
2023/12/20 03:36:52;;;;;;;9.95;3.30;;;8.90;99.90;;;;;;4265207;27;20550;-64
2023/12/20 03:38:54;;;;;;;11.18;2.60;;;8.90;99.90;;;;;;4265015;27;20050;-64
2023/12/20 03:40:56;;;;;;;8.07;2.42;;;8.80;99.90;;;;;;4265070;27;20039;-65
2023/12/20 03:42:58;;;;;;;9.50;2.40;;;8.80;99.90;;;;;;4265183;27;20115;-64
2023/12/20 03:45:02;;;;;;;12.48;2.53;;;8.90;99.90;;;;;;4264985;27;20054;-65
2023/12/20 03:47:04;;;;;;;8.00;3.03;;;8.80;99.90;;;;;;4265058;27;20116;-65
2023/12/20 03:49:07;;;;;;;14.52;2.60;;;8.90;99.90;;;;;;4246161;27;20138;-64
2023/12/20 03:51:09;;;;;;;14.65;3.15;;;8.90;99.90;;;;;;4246470;27;20050;-64
2023/12/20 03:53:11;;;;;;;12.60;3.38;;;8.70;99.90;;;;;;4264815;27;20049;-64
2023/12/20 03:55:13;;;;;;;13.07;2.47;;;8.70;99.90;;;;;;4246431;28;20043;-64
2023/12/20 03:57:15;;;;;;;14.40;2.50;;;8.70;99.90;;;;;;4264878;27;20046;-66
2023/12/20 03:59:18;;;;;;;12.02;2.78;;;8.70;99.90;;;;;;4265744;27;20409;-65
2023/12/20 04:01:22;;;;;;;7.97;2.50;;;8.80;99.90;;;;;;4264864;27;20447;-64
2023/12/20 04:03:24;;;;;;;13.75;2.40;;;8.80;99.90;;;;;;4264613;27;20137;-64
2023/12/20 04:05:26;;;;;;;8.95;2.65;;;8.80;99.90;;;;;;4266020;27;20051;-64
2023/12/20 04:07:29;;;;;;;12.15;2.40;;;8.80;99.90;;;;;;4266181;27;20039;-64
2023/12/20 04:09:32;;;;;;;10.55;2.55;;;8.90;99.90;;;;;;4266012;27;20046;-65
2023/12/20 04:11:35;;;;;;;15.98;2.75;;;8.90;99.90;;;;;;4266241;27;20043;-65
2023/12/20 04:13:37;;;;;;;10.40;2.50;;;9.00;99.90;;;;;;4265069;27;20047;-64
2023/12/20 04:15:39;;;;;;;9.25;2.35;;;8.90;99.90;;;;;;4264791;27;20113;-64
2023/12/20 04:17:43;;;;;;;9.75;2.33;;;8.90;99.90;;;;;;4263979;27;20107;-64
2023/12/20 04:19:45;;;;;;;12.32;2.15;;;8.90;99.90;;;;;;4264552;27;20050;-64
2023/12/20 04:21:48;;;;;;;13.77;2.70;;;8.80;99.90;;;;;;4264639;27;20047;-64
2023/12/20 04:23:50;;;;;;;9.45;2.25;;;8.70;99.90;;;;;;4264739;27;20039;-64
2023/12/20 04:25:53;;;;;;;9.30;2.25;;;8.70;99.90;;;;;;4265154;27;20122;-70
2023/12/20 04:27:55;;;;;;;14.95;2.97;;;8.70;99.90;;;;;;4265262;27;20042;-65
2023/12/20 04:29:57;;;;;;;9.55;2.28;;;8.70;99.90;;;;;;4264740;27;20042;-64
2023/12/20 04:31:59;;;;;;;14.82;2.80;;;8.80;99.90;;;;;;4264329;27;20426;-65
2023/12/20 04:34:02;;;;;;;12.98;2.88;;;8.70;99.90;;;;;;4264510;27;20070;-65
2023/12/20 04:36:05;;;;;;;9.57;2.28;;;8.80;99.90;;;;;;4264333;27;20478;-64
2023/12/20 04:38:07;;;;;;;10.60;2.63;;;8.80;99.90;;;;;;4264367;27;20046;-65
2023/12/20 04:40:10;;;;;;;16.13;2.60;;;8.80;99.90;;;;;;4264418;27;20043;-65
2023/12/20 04:42:12;;;;;;;11.23;3.03;;;8.70;99.90;;;;;;4264345;27;20102;-65
2023/12/20 04:44:14;;;;;;;11.20;2.42;;;8.70;99.90;;;;;;4264497;27;20057;-65
2023/12/20 04:46:16;;;;;;;15.45;2.83;;;8.70;99.90;;;;;;4265711;27;20047;-64
2023/12/20 04:48:18;;;;;;;11.30;2.92;;;8.70;99.90;;;;;;4267292;27;20121;-65
2023/12/20 04:50:21;;;;;;;13.40;2.90;;;8.60;99.90;;;;;;4267482;27;20091;-64
2023/12/20 04:52:24;;;;;;;9.93;2.30;;;8.70;99.90;;;;;;4267284;27;20363;-64
2023/12/20 04:54:26;;;;;;;16.05;3.47;;;8.70;99.90;;;;;;4248953;27;20047;-65
2023/12/20 04:56:28;;;;;;;14.20;2.92;;;8.70;99.90;;;;;;4267181;27;20052;-65
2023/12/20 04:58:30;;;;;;;13.00;2.67;;;8.80;99.90;;;;;;4267187;27;20047;-64
2023/12/20 05:00:32;;;;;;;11.30;2.42;;;8.70;99.90;;;;;;4266668;27;20047;-64
2023/12/20 05:02:36;;;;;;;10.55;3.20;;;8.60;99.90;;;;;;4267315;27;20071;-64
2023/12/20 05:04:38;;;;;;;12.63;2.60;;;8.60;99.90;;;;;;4267073;27;20058;-64
2023/12/20 05:06:41;;;;;;;10.57;2.60;;;8.50;99.90;;;;;;4267336;27;20046;-64
2023/12/20 05:08:44;;;;;;;17.42;3.50;;;8.60;99.90;;;;;;4267019;27;20054;-64
2023/12/20 05:10:46;;;;;;;15.65;2.97;;;8.50;99.90;;;;;;4267044;27;20043;-64
2023/12/20 05:12:48;;;;;;;13.90;3.38;;;8.60;99.90;;;;;;4267191;27;20067;-64
2023/12/20 05:14:51;;;;;;;13.95;2.75;;;8.50;99.90;;;;;;4266727;27;20047;-64
2023/12/20 05:16:53;;;;;;;11.70;2.90;;;8.40;99.90;;;;;;4266307;27;20049;-64
2023/12/20 05:18:55;;;;;;;14.32;2.75;;;8.40;99.90;;;;;;4267303;27;20519;-64
2023/12/20 05:20:58;;;;;;;9.63;2.38;;;8.50;99.90;;;;;;4267511;27;20057;-64
2023/12/20 05:23:02;;;;;;;11.10;2.42;;;8.50;99.90;;;;;;4267046;27;20138;-65
2023/12/20 05:25:05;;;;;;;10.77;2.38;;;8.50;99.90;;;;;;4267098;27;20482;-64
2023/12/20 05:27:07;;;;;;;10.85;2.88;;;8.50;99.90;;;;;;4267175;27;20481;-65
2023/12/20 05:29:09;;;;;;;9.25;2.08;;;8.40;99.90;;;;;;4266986;27;20073;-64
2023/12/20 05:31:11;;;;;;;12.20;2.85;;;8.50;99.90;;;;;;4266803;27;20553;-64
2023/12/20 05:33:13;;;;;;;18.00;2.50;;;8.60;99.90;;;;;;4248778;27;20047;-67
2023/12/20 05:35:16;;;;;;;17.95;3.05;;;8.60;99.90;;;;;;4267094;27;20409;-64
2023/12/20 05:37:19;;;;;;;14.95;2.85;;;8.60;99.90;;;;;;4249713;27;20480;-69
2023/12/20 05:39:23;;;;;;;9.88;2.30;;;8.60;99.90;;;;;;4267726;27;20047;-64
2023/12/20 05:41:25;;;;;;;14.07;2.28;;;8.40;99.90;;;;;;4267201;27;20070;-64
2023/12/20 05:43:28;;;;;;;10.35;2.60;;;8.40;99.90;;;;;;4266594;27;20076;-64
2023/12/20 05:45:30;;;;;;;12.52;2.85;;;8.50;99.90;;;;;;4266504;27;20049;-64
2023/12/20 05:47:32;;;;;;;11.40;2.83;;;8.50;99.90;;;;;;4266277;27;20406;-65
2023/12/20 05:49:35;;;;;;;17.65;2.85;;;8.40;99.90;;;;;;4266607;27;20073;-65
2023/12/20 05:51:37;;;;;;;14.77;2.55;;;8.40;99.90;;;;;;4266487;27;20109;-64
2023/12/20 05:53:39;;;;;;;10.20;2.70;;;8.30;99.90;;;;;;4266652;27;20039;-65
2023/12/20 05:55:43;;;;;;;16.38;2.90;;;8.40;99.90;;;;;;4266488;27;20046;-65
2023/12/20 05:57:45;;;;;;;12.90;2.65;;;8.40;99.90;;;;;;4266409;27;20140;-65
2023/12/20 05:59:47;;;;;;;14.25;2.85;;;8.40;99.90;;;;;;4266386;27;20081;-65
2023/12/20 06:01:49;;;;;;;7.97;2.00;;;8.40;99.90;;;;;;4266482;27;20039;-65
2023/12/20 06:03:51;;;;;;;13.85;3.08;;;8.40;99.90;;;;;;4267636;27;20042;-65
2023/12/20 06:05:53;;;;;;;11.32;2.45;;;8.40;99.90;;;;;;4268441;27;20091;-67
2023/12/20 06:08:12;;;;;;;14.25;2.85;;;8.50;99.90;;;;;;4269332;27;20039;-65
2023/12/20 06:10:14;;;;;;;16.67;2.45;;;8.40;99.90;;;;;;4270179;27;20047;-65
2023/12/20 06:12:17;;;;;;;15.18;3.20;;;8.40;99.90;;;;;;4269795;27;20678;-71
2023/12/20 06:14:19;;;;;;;11.00;2.55;;;8.40;99.90;;;;;;4269972;27;20054;-64
2023/12/20 06:16:21;;;;;;;14.32;2.55;;;8.30;99.90;;;;;;4269847;27;20039;-66
2023/12/20 06:18:24;;;;;;;14.35;3.17;;;8.30;99.90;;;;;;4269484;27;20050;-66
2023/12/20 06:20:27;;;;;;;10.70;2.83;;;8.40;99.90;;;;;;4269609;27;20038;-66
2023/12/20 06:22:29;;;;;;;13.57;3.28;;;8.40;99.90;;;;;;4268629;27;20065;-66
2023/12/20 06:24:33;;;;;;;15.98;3.25;;;8.50;99.90;;;;;;4268695;27;20408;-64
2023/12/20 06:26:37;;;;;;;11.75;2.47;;;8.50;99.90;;;;;;4269309;27;20045;-67
2023/12/20 06:28:40;;;;;;;11.27;3.28;;;8.40;99.90;;;;;;4268696;27;20053;-68
2023/12/20 06:30:43;;;;;;;20.67;3.20;;;8.40;99.90;;;;;;4266195;27;20460;-65
2023/12/20 06:32:46;;;;;;;14.93;3.17;;;8.40;99.90;;;;;;4266812;27;20039;-65
2023/12/20 06:34:49;;;;;;;11.63;2.95;;;8.30;99.90;;;;;;4268379;27;20053;-69
2023/12/20 06:36:51;;;;;;;13.25;3.03;;;8.40;99.90;;;;;;4266538;27;20065;-65
2023/12/20 06:38:53;;;;;;;14.73;2.95;;;8.40;99.90;;;;;;4249532;27;20047;-65
2023/12/20 06:40:57;;;;;;;12.38;2.92;;;8.40;99.90;;;;;;4268563;27;20066;-65
2023/12/20 06:42:59;;;;;;;13.88;2.60;;;8.40;99.90;;;;;;4249405;27;20046;-65
2023/12/20 06:45:14;;;;;;;9.93;2.75;;;8.20;99.90;;;;;;4267015;27;20049;-66
2023/12/20 06:47:16;;;;;;;16.08;3.33;;;8.40;99.90;;;;;;4266433;27;20474;-65
2023/12/20 06:49:18;;;;;;;14.32;3.55;;;8.40;99.90;;;;;;4267047;27;20051;-69
2023/12/20 06:51:25;;;;;;;12.48;3.30;;;8.40;99.90;;;;;;4266359;27;20500;-65
2023/12/20 06:53:27;;;;;;;14.70;3.00;;;8.30;99.90;;;;;;4265669;27;20039;-64
2023/12/20 06:55:30;;;;;;;12.57;2.22;;;8.30;99.90;;;;;;4265664;27;20103;-65
2023/12/20 06:57:32;;;;;;;14.45;3.38;;;8.20;99.90;;;;;;4265854;27;20050;-68
2023/12/20 06:59:38;;;;;;;14.63;2.80;;;8.20;99.90;;;;;;4265632;27;20107;-64
2023/12/20 07:01:42;;;;;;;12.18;3.10;;;8.30;99.90;;;;;;4265244;27;20043;-64
2023/12/20 07:03:44;;;;;;;11.82;2.92;;;8.20;99.90;;;;;;4265277;27;20047;-64
2023/12/20 07:05:47;;;;;;;10.80;2.50;;;8.20;99.90;;;;;;4265382;27;20039;-64
2023/12/20 07:07:49;;;;;;;7.43;2.55;;;8.30;99.90;;;;;;4264426;27;20055;-64
2023/12/20 07:09:51;;;;;;;12.88;2.72;;;8.40;99.90;;;;;;4265367;27;20042;-64
2023/12/20 07:11:54;;;;;;;10.63;2.65;;;8.30;99.90;;;;;;4265083;27;20038;-66
2023/12/20 07:13:55;;;;;;;12.00;2.65;;;8.20;99.90;;;;;;4265317;27;20051;-65
2023/12/20 07:15:58;;;;;;;14.85;3.08;;;8.20;99.90;;;;;;4266654;27;20043;-64
2023/12/20 07:18:01;;;;;;;14.20;2.97;;;8.20;99.90;;;;;;4267104;27;20039;-66
2023/12/20 07:20:06;;;;;;;12.00;2.50;;;8.20;99.90;;;;;;4266877;27;20047;-65
2023/12/20 07:22:09;;;;;;;12.73;2.80;;;8.30;99.90;;;;;;4266545;27;20050;-64
2023/12/20 07:24:11;;;;;;;9.27;2.25;;;8.20;99.90;;;;;;4266445;27;20046;-65
2023/12/20 07:26:14;;;;;;;13.95;2.40;;;8.30;99.90;;;;;;4265849;27;20500;-65
2023/12/20 07:28:16;;;;;;;9.20;2.63;;;8.30;99.90;;;;;;4265175;27;20046;-64
2023/12/20 07:30:18;;;;;;;16.05;3.20;;;8.10;99.90;;;;;;4265119;27;20486;-65
2023/12/20 07:32:20;;;;;;;12.52;3.13;;;8.20;99.90;;;;;;4265266;27;20401;-65
2023/12/20 07:34:24;;;;;;;11.27;3.05;;;8.30;99.90;;;;;;4264824;27;20045;-65
2023/12/20 07:36:26;;;;;;;11.35;3.28;;;8.20;99.90;;;;;;4264814;27;20553;-65
2023/12/20 07:38:28;;;;;;;15.68;3.45;;;8.30;99.90;;;;;;4265720;27;20042;-64
2023/12/20 07:40:30;;;;;;;15.50;3.22;;;8.10;99.90;;;;;;4265381;27;20097;-65
2023/12/20 07:42:32;;;;;;;9.10;2.67;;;8.20;99.90;;;;;;4247086;28;20055;-64
2023/12/20 07:44:35;;;;;;;12.65;3.22;;;8.40;99.90;;;;;;4265423;27;20081;-65
2023/12/20 07:46:37;;;;;;;19.83;3.80;;;8.40;99.90;;;;;;4264734;27;20047;-64
2023/12/20 07:48:41;;;;;;;15.15;2.45;;;8.40;99.90;;;;;;4264817;27;20050;-65
2023/12/20 07:50:47;;;;;;;13.27;2.90;;;8.30;99.90;;;;;;4264872;27;20035;-64
2023/12/20 07:52:49;;;;;;;13.88;4.47;;;8.20;99.90;;;;;;4264886;27;20070;-64
2023/12/20 07:54:51;;;;;;;23.75;4.00;;;8.20;99.90;;;;;;4265340;27;20099;-65
2023/12/20 07:56:53;;;;;;;13.35;3.55;;;8.20;99.90;;;;;;4266304;27;20046;-64
2023/12/20 07:58:55;;;;;;;12.60;3.50;;;8.20;99.90;;;;;;4264796;27;20046;-63
2023/12/20 08:01:00;;;;;;;12.05;3.30;;;8.30;99.90;;;;;;4246410;28;20043;-63
2023/12/20 08:03:03;;;;;;;12.18;3.35;;;8.20;99.90;;;;;;4264791;27;20092;-63
2023/12/20 08:05:06;;;;;;;16.08;3.35;;;8.20;99.90;;;;;;4264668;27;20562;-65
2023/12/20 08:07:09;;;;;;;23.63;4.88;;;8.20;99.90;;;;;;4265241;27;20500;-64
2023/12/20 08:09:11;;;;;;;15.38;4.13;;;8.50;99.90;;;;;;4262221;27;20035;-65
2023/12/20 08:11:13;;;;;;;15.48;3.55;;;8.70;99.90;;;;;;4263202;27;20122;-64
2023/12/20 08:13:15;;;;;;;15.75;3.40;;;9.10;99.90;;;;;;4260086;27;20071;-65
2023/12/20 08:15:18;;;;;;;20.52;3.83;;;9.00;99.90;;;;;;4264893;27;20061;-64
2023/12/20 08:17:20;;;;;;;15.07;3.20;;;9.10;99.90;;;;;;4258016;27;20093;-65
2023/12/20 08:19:22;;;;;;;17.63;3.90;;;9.10;99.90;;;;;;4250479;27;20440;-65
2023/12/20 08:21:24;;;;;;;13.60;3.33;;;9.20;99.90;;;;;;4264290;27;20039;-64
2023/12/20 08:23:28;;;;;;;13.48;3.53;;;9.50;99.90;;;;;;4263774;27;20060;-66
2023/12/20 08:25:34;;;;;;;12.88;3.42;;;9.50;99.90;;;;;;4276041;27;20038;-64
2023/12/20 08:27:39;;;;;;;17.25;4.43;;;9.80;99.90;;;;;;4267183;27;20045;-65
2023/12/20 08:29:44;;;;;;;26.60;5.18;;;9.70;99.90;;;;;;4261638;27;20477;-63
2023/12/20 08:31:51;;;;;;;13.13;3.35;;;9.70;99.90;;;;;;4272460;27;20042;-64
2023/12/20 08:33:53;;;;;;;14.77;4.05;;;9.80;99.90;;;;;;4267383;27;20042;-62
2023/12/20 08:35:56;;;;;;;17.70;4.82;;;10.00;99.90;;;;;;4285211;27;20038;-62
2023/12/20 08:37:58;;;;;;;24.15;4.95;;;10.00;99.90;;;;;;4275688;27;20043;-62
2023/12/20 08:40:01;;;;;;;20.63;4.75;;;9.80;99.90;;;;;;4269965;27;20077;-65
2023/12/20 08:42:04;;;;;;;23.58;4.45;;;9.60;99.90;;;;;;4285334;27;20048;-63
2023/12/20 08:44:06;;;;;;;17.77;4.32;;;9.70;99.90;;;;;;4285522;27;20050;-67
2023/12/20 08:46:12;;;;;;;16.33;3.80;;;10.20;99.90;;;;;;4284292;27;20042;-64
2023/12/20 08:48:14;;;;;;;19.10;4.20;;;10.20;99.90;;;;;;4242293;27;20093;-62
2023/12/20 08:50:16;;;;;;;15.52;4.18;;;9.70;99.90;;;;;;4267647;27;20046;-64
2023/12/20 08:52:19;;;;;;;14.73;3.42;;;9.50;99.90;;;;;;4266526;27;20054;-63
2023/12/20 08:54:21;;;;;;;19.48;3.90;;;9.40;99.90;;;;;;4267580;27;20095;-64
2023/12/20 08:56:24;;;;;;;14.52;3.83;;;9.30;99.90;;;;;;4267379;27;20066;-64
2023/12/20 08:58:26;;;;;;;22.30;5.32;;;9.30;99.90;;;;;;4267271;27;20496;-64
2023/12/20 09:00:29;;;;;;;13.93;3.80;;;9.20;99.90;;;;;;4267230;27;20501;-63
2023/12/20 09:02:31;;;;;;;17.83;4.45;;;9.20;99.90;;;;;;4267661;27;20047;-63
2023/12/20 09:04:34;;;;;;;22.75;4.85;;;9.20;99.90;;;;;;4268606;27;20111;-62
2023/12/20 09:06:36;;;;;;;20.38;4.70;;;9.10;99.90;;;;;;4266797;27;20047;-63
2023/12/20 09:08:39;;;;;;;15.52;3.63;;;9.10;99.90;;;;;;4267469;27;20413;-63
2023/12/20 09:10:41;;;;;;;18.65;3.90;;;9.00;99.90;;;;;;4248512;27;20055;-63
2023/12/20 09:12:47;;;;;;;19.95;4.65;;;9.20;99.90;;;;;;4267595;27;20066;-63
2023/12/20 09:14:50;;;;;;;21.25;4.50;;;9.30;99.90;;;;;;4267677;27;20049;-65
2023/12/20 09:16:52;;;;;;;18.52;4.07;;;9.30;99.90;;;;;;4267120;27;20066;-62
2023/12/20 09:18:54;;;;;;;13.27;3.30;;;9.30;99.90;;;;;;4266898;27;20543;-63
2023/12/20 09:20:56;;;;;;;20.75;4.43;;;9.50;99.90;;;;;;4266576;27;20066;-63
2023/12/20 09:22:58;;;;;;;18.30;4.55;;;9.40;99.90;;;;;;4266849;27;20542;-63
2023/12/20 09:25:01;;;;;;;19.33;4.75;;;9.40;99.90;;;;;;4248399;27;20067;-62
2023/12/20 09:27:05;;;;;;;15.60;4.13;;;9.40;99.90;;;;;;4266555;27;20385;-64
2023/12/20 09:29:15;;;;;;;17.88;4.03;;;9.40;99.90;;;;;;4248842;27;20118;-64
2023/12/20 09:31:17;;;;;;;14.40;3.53;;;9.40;99.90;;;;;;4265852;27;20096;-64
2023/12/20 09:33:19;;;;;;;21.88;4.05;;;9.40;99.90;;;;;;4266913;27;20126;-67
2023/12/20 09:35:21;;;;;;;13.38;3.85;;;9.40;99.90;;;;;;4266818;27;20050;-63
2023/12/20 09:37:27;;;;;;;17.40;3.70;;;9.50;99.90;;;;;;4266659;27;20047;-64
2023/12/20 09:39:31;;;;;;;15.18;3.38;;;9.50;99.90;;;;;;4268021;27;20050;-64
2023/12/20 09:41:41;;;;;;;19.50;4.20;;;9.60;99.90;;;;;;4268103;27;20051;-67
2023/12/20 09:43:43;;;;;;;18.17;4.07;;;9.60;99.90;;;;;;4268493;27;20042;-61
2023/12/20 09:45:48;;;;;;;18.13;3.22;;;9.60;99.90;;;;;;4267698;27;20442;-60
2023/12/20 09:47:50;;;;;;;;;;;9.70;99.90;;;;;;4248909;27;20043;-63
2023/12/20 09:49:53;;;;;;;19.75;4.20;;;9.60;99.90;;;;;;4266087;27;19923;-61
2023/12/20 09:51:56;;;;;;;18.42;4.70;;;9.50;99.90;;;;;;4266334;27;20405;-61
2023/12/20 09:54:01;;;;;;;20.83;4.00;;;9.50;99.90;;;;;;4266361;27;20213;-61
2023/12/20 09:56:03;;;;;;;;;;;9.70;99.90;;;;;;4266760;27;20050;-61
2023/12/20 09:58:06;;;;;;;22.98;4.53;;;9.80;99.90;;;;;;4266740;27;19923;-61
2023/12/20 10:00:10;;;;;;;22.02;4.25;;;9.70;99.90;;;;;;4266947;27;20145;-64
2023/12/20 10:02:14;;;;;;;14.15;3.55;;;9.70;99.90;;;;;;4268438;27;20457;-64
2023/12/20 10:04:17;;;;;;;;;;;9.90;99.90;;;;;;4268479;27;20042;-64
2023/12/20 10:06:31;;;;;;;12.43;3.67;;;10.00;99.90;;;;;;4266737;27;19926;-64
2023/12/20 10:08:33;;;;;;;24.02;3.75;;;9.90;99.90;;;;;;4266709;27;20547;-64
2023/12/20 10:10:35;;;;;;;20.33;4.13;;;10.00;99.90;;;;;;4266981;27;20143;-67
2023/12/20 10:13:02;;;;;;;26.42;4.80;;;10.00;99.90;;;;;;4267217;27;20050;-64
2023/12/20 10:15:05;;;;;;;19.75;4.28;;;9.90;99.90;;;;;;4266196;27;20043;-64
2023/12/20 10:17:08;;;;;;;20.80;4.97;;;9.90;99.90;;;;;;4265889;27;20501;-65
2023/12/20 10:19:11;;;;;;;14.70;4.28;;;9.90;99.90;;;;;;4265717;27;20500;-64
2023/12/20 10:21:13;;;;;;;15.05;3.38;;;10.00;99.90;;;;;;4265486;27;20053;-64
2023/12/20 10:23:16;;;;;;;15.57;4.18;;;10.10;99.90;;;;;;4247478;27;20043;-63
2023/12/20 10:25:18;;;;;;;19.30;3.72;;;10.00;99.90;;;;;;4265938;27;20038;-64
2023/12/20 10:27:20;;;;;;;16.77;4.07;;;10.00;99.90;;;;;;4265826;27;20046;-64
2023/12/20 10:29:24;;;;;;;17.85;4.88;;;10.00;99.90;;;;;;4265690;27;20054;-63
2023/12/20 10:31:28;;;;;;;17.35;4.00;;;10.00;99.90;;;;;;4265613;27;20045;-63
2023/12/20 10:33:32;;;;;;;21.95;4.43;;;9.90;99.90;;;;;;4264723;27;20049;-62
2023/12/20 10:35:37;;;;;;;;;;;10.00;99.90;;;;;;4266234;27;20063;-64
2023/12/20 10:37:39;;;;;;;21.90;4.05;;;10.00;99.90;;;;;;4265479;27;19918;-65
2023/12/20 10:39:43;;;;;;;15.15;4.07;;;10.00;99.90;;;;;;4265502;27;20038;-64
2023/12/20 10:41:47;;;;;;;17.20;4.53;;;9.90;99.90;;;;;;4247261;27;20081;-64
2023/12/20 10:43:49;;;;;;;18.20;4.20;;;9.80;99.90;;;;;;4264779;27;20068;-64